sensor_id;sensor_type;location;lat;lon;timestamp;temperature;humidity
2957;DHT22;1488;51.548;7.222;2023-07-29T00:01:42;24.40;99.20
2957;DHT22;1488;51.548;7.222;2023-07-29T00:04:09;24.40;99.30
2957;DHT22;1488;51.548;7.222;2023-07-29T00:06:36;24.40;99.50
2957;DHT22;1488;51.548;7.222;2023-07-29T00:09:03;24.40;99.20
2957;DHT22;1488;51.548;7.222;2023-07-29T00:11:30;24.40;99.00
2957;DHT22;1488;51.548;7.222;2023-07-29T00:13:59;24.40;98.90
2957;DHT22;1488;51.548;7.222;2023-07-29T00:16:27;24.40;99.10
2957;DHT22;1488;51.548;7.222;2023-07-29T00:18:54;24.40;99.10
2957;DHT22;1488;51.548;7.222;2023-07-29T00:21:21;24.40;99.20
2957;DHT22;1488;51.548;7.222;2023-07-29T00:23:48;24.40;99.10
2957;DHT22;1488;51.548;7.222;2023-07-29T00:26:14;24.40;99.20
2957;DHT22;1488;51.548;7.222;2023-07-29T00:28:41;24.40;99.20
2957;DHT22;1488;51.548;7.222;2023-07-29T00:31:08;24.40;99.10
2957;DHT22;1488;51.548;7.222;2023-07-29T00:33:38;24.40;99.10
2957;DHT22;1488;51.548;7.222;2023-07-29T00:36:06;24.40;99.30
2957;DHT22;1488;51.548;7.222;2023-07-29T00:38:32;24.40;99.20
2957;DHT22;1488;51.548;7.222;2023-07-29T00:41:00;24.40;99.20
2957;DHT22;1488;51.548;7.222;2023-07-29T00:43:28;24.40;99.20
2957;DHT22;1488;51.548;7.222;2023-07-29T00:45:55;24.40;99.20
2957;DHT22;1488;51.548;7.222;2023-07-29T00:48:23;24.40;99.10
2957;DHT22;1488;51.548;7.222;2023-07-29T00:50:51;24.40;99.10
2957;DHT22;1488;51.548;7.222;2023-07-29T00:53:18;24.40;99.20
2957;DHT22;1488;51.548;7.222;2023-07-29T00:55:45;24.40;99.20
2957;DHT22;1488;51.548;7.222;2023-07-29T00:58:12;24.40;99.20
2957;DHT22;1488;51.548;7.222;2023-07-29T01:00:39;24.40;99.20
2957;DHT22;1488;51.548;7.222;2023-07-29T01:03:06;24.40;99.20
2957;DHT22;1488;51.548;7.222;2023-07-29T01:05:38;24.40;99.10
2957;DHT22;1488;51.548;7.222;2023-07-29T01:08:14;24.40;99.10
2957;DHT22;1488;51.548;7.222;2023-07-29T01:10:50;24.40;99.10
2957;DHT22;1488;51.548;7.222;2023-07-29T01:13:22;24.40;99.10
2957;DHT22;1488;51.548;7.222;2023-07-29T01:15:55;24.40;99.10
2957;DHT22;1488;51.548;7.222;2023-07-29T01:18:23;24.40;99.10
2957;DHT22;1488;51.548;7.222;2023-07-29T01:20:53;24.40;99.20
2957;DHT22;1488;51.548;7.222;2023-07-29T01:23:25;24.40;99.10
2957;DHT22;1488;51.548;7.222;2023-07-29T01:25:52;24.40;99.10
2957;DHT22;1488;51.548;7.222;2023-07-29T01:28:19;24.40;99.10
2957;DHT22;1488;51.548;7.222;2023-07-29T01:30:49;24.40;99.30
2957;DHT22;1488;51.548;7.222;2023-07-29T01:33:18;24.40;98.90
2957;DHT22;1488;51.548;7.222;2023-07-29T01:35:48;24.40;99.10
2957;DHT22;1488;51.548;7.222;2023-07-29T01:38:18;24.40;99.50
2957;DHT22;1488;51.548;7.222;2023-07-29T01:40:48;24.40;99.10
2957;DHT22;1488;51.548;7.222;2023-07-29T01:43:16;24.40;99.20
2957;DHT22;1488;51.548;7.222;2023-07-29T01:45:44;24.40;99.10
2957;DHT22;1488;51.548;7.222;2023-07-29T01:48:11;24.40;99.10
2957;DHT22;1488;51.548;7.222;2023-07-29T01:50:38;24.40;99.10
2957;DHT22;1488;51.548;7.222;2023-07-29T01:53:05;24.40;99.00
2957;DHT22;1488;51.548;7.222;2023-07-29T01:55:32;24.40;99.10
2957;DHT22;1488;51.548;7.222;2023-07-29T01:58:00;24.40;99.00
2957;DHT22;1488;51.548;7.222;2023-07-29T02:00:27;24.40;99.00
2957;DHT22;1488;51.548;7.222;2023-07-29T02:02:54;24.40;99.00
2957;DHT22;1488;51.548;7.222;2023-07-29T02:05:20;24.40;99.00
2957;DHT22;1488;51.548;7.222;2023-07-29T02:07:47;24.40;99.00
2957;DHT22;1488;51.548;7.222;2023-07-29T02:10:14;24.30;99.00
2957;DHT22;1488;51.548;7.222;2023-07-29T02:12:41;24.40;99.00
2957;DHT22;1488;51.548;7.222;2023-07-29T02:15:09;24.40;99.00
2957;DHT22;1488;51.548;7.222;2023-07-29T02:17:36;24.40;99.00
2957;DHT22;1488;51.548;7.222;2023-07-29T02:20:04;24.30;99.10
2957;DHT22;1488;51.548;7.222;2023-07-29T02:22:31;24.30;99.20
2957;DHT22;1488;51.548;7.222;2023-07-29T02:24:58;24.40;99.10
2957;DHT22;1488;51.548;7.222;2023-07-29T02:27:24;24.30;99.10
2957;DHT22;1488;51.548;7.222;2023-07-29T02:29:52;24.40;99.20
2957;DHT22;1488;51.548;7.222;2023-07-29T02:32:21;24.30;98.90
2957;DHT22;1488;51.548;7.222;2023-07-29T02:34:48;24.40;98.90
2957;DHT22;1488;51.548;7.222;2023-07-29T02:37:15;24.40;99.10
2957;DHT22;1488;51.548;7.222;2023-07-29T02:39:42;24.30;99.10
2957;DHT22;1488;51.548;7.222;2023-07-29T02:42:09;24.30;99.10
2957;DHT22;1488;51.548;7.222;2023-07-29T02:44:35;24.30;99.00
2957;DHT22;1488;51.548;7.222;2023-07-29T02:47:02;24.30;99.00
2957;DHT22;1488;51.548;7.222;2023-07-29T02:49:30;24.40;99.00
2957;DHT22;1488;51.548;7.222;2023-07-29T02:51:57;24.40;99.00
2957;DHT22;1488;51.548;7.222;2023-07-29T02:54:24;24.30;98.90
2957;DHT22;1488;51.548;7.222;2023-07-29T02:56:51;24.30;99.10
2957;DHT22;1488;51.548;7.222;2023-07-29T02:59:17;24.40;99.10
2957;DHT22;1488;51.548;7.222;2023-07-29T03:01:45;24.30;99.10
2957;DHT22;1488;51.548;7.222;2023-07-29T03:04:12;24.30;99.10
2957;DHT22;1488;51.548;7.222;2023-07-29T03:06:40;24.40;99.10
2957;DHT22;1488;51.548;7.222;2023-07-29T03:09:08;24.30;99.00
2957;DHT22;1488;51.548;7.222;2023-07-29T03:11:35;24.30;99.00
2957;DHT22;1488;51.548;7.222;2023-07-29T03:14:01;24.30;99.10
2957;DHT22;1488;51.548;7.222;2023-07-29T03:16:28;24.30;99.30
2957;DHT22;1488;51.548;7.222;2023-07-29T03:18:55;24.30;99.10
2957;DHT22;1488;51.548;7.222;2023-07-29T03:21:23;24.30;99.10
2957;DHT22;1488;51.548;7.222;2023-07-29T03:23:51;24.30;99.10
2957;DHT22;1488;51.548;7.222;2023-07-29T03:26:18;24.30;99.10
2957;DHT22;1488;51.548;7.222;2023-07-29T03:28:45;24.30;99.10
2957;DHT22;1488;51.548;7.222;2023-07-29T03:31:12;24.30;99.00
2957;DHT22;1488;51.548;7.222;2023-07-29T03:33:38;24.30;99.10
2957;DHT22;1488;51.548;7.222;2023-07-29T03:36:05;24.30;99.10
2957;DHT22;1488;51.548;7.222;2023-07-29T03:38:32;24.40;99.10
2957;DHT22;1488;51.548;7.222;2023-07-29T03:41:02;24.30;99.10
2957;DHT22;1488;51.548;7.222;2023-07-29T03:43:28;24.30;99.00
2957;DHT22;1488;51.548;7.222;2023-07-29T03:45:55;24.30;99.00
2957;DHT22;1488;51.548;7.222;2023-07-29T03:48:22;24.30;99.00
2957;DHT22;1488;51.548;7.222;2023-07-29T03:50:52;24.30;99.10
2957;DHT22;1488;51.548;7.222;2023-07-29T03:53:20;24.30;99.20
2957;DHT22;1488;51.548;7.222;2023-07-29T03:55:46;24.30;99.10
2957;DHT22;1488;51.548;7.222;2023-07-29T03:58:16;24.30;98.80
2957;DHT22;1488;51.548;7.222;2023-07-29T04:00:43;24.30;98.80
2957;DHT22;1488;51.548;7.222;2023-07-29T04:03:10;24.30;98.80
2957;DHT22;1488;51.548;7.222;2023-07-29T04:05:37;24.30;98.80
2957;DHT22;1488;51.548;7.222;2023-07-29T04:08:03;24.30;98.70
2957;DHT22;1488;51.548;7.222;2023-07-29T04:10:30;24.30;98.70
2957;DHT22;1488;51.548;7.222;2023-07-29T04:12:57;24.30;98.80
2957;DHT22;1488;51.548;7.222;2023-07-29T04:15:26;24.30;98.90
2957;DHT22;1488;51.548;7.222;2023-07-29T04:17:52;24.30;98.90
2957;DHT22;1488;51.548;7.222;2023-07-29T04:20:19;24.30;98.90
2957;DHT22;1488;51.548;7.222;2023-07-29T04:22:46;24.30;98.90
2957;DHT22;1488;51.548;7.222;2023-07-29T04:25:13;24.30;98.90
2957;DHT22;1488;51.548;7.222;2023-07-29T04:27:40;24.30;98.90
2957;DHT22;1488;51.548;7.222;2023-07-29T04:30:08;24.30;98.90
2957;DHT22;1488;51.548;7.222;2023-07-29T04:32:36;24.30;98.80
2957;DHT22;1488;51.548;7.222;2023-07-29T04:35:03;24.30;98.90
2957;DHT22;1488;51.548;7.222;2023-07-29T04:37:30;24.30;99.00
2957;DHT22;1488;51.548;7.222;2023-07-29T04:39:57;24.30;98.90
2957;DHT22;1488;51.548;7.222;2023-07-29T04:42:23;24.30;98.90
2957;DHT22;1488;51.548;7.222;2023-07-29T04:44:50;24.30;98.80
2957;DHT22;1488;51.548;7.222;2023-07-29T04:47:17;24.30;98.80
2957;DHT22;1488;51.548;7.222;2023-07-29T04:49:45;24.30;98.80
2957;DHT22;1488;51.548;7.222;2023-07-29T04:52:12;24.30;98.90
2957;DHT22;1488;51.548;7.222;2023-07-29T04:54:40;24.30;98.70
2957;DHT22;1488;51.548;7.222;2023-07-29T04:57:07;24.30;98.80
2957;DHT22;1488;51.548;7.222;2023-07-29T04:59:34;24.30;98.90
2957;DHT22;1488;51.548;7.222;2023-07-29T05:02:02;24.30;98.80
2957;DHT22;1488;51.548;7.222;2023-07-29T05:04:28;24.30;98.80
2957;DHT22;1488;51.548;7.222;2023-07-29T05:06:56;24.30;98.80
2957;DHT22;1488;51.548;7.222;2023-07-29T05:09:23;24.30;98.70
2957;DHT22;1488;51.548;7.222;2023-07-29T05:11:51;24.30;98.80
2957;DHT22;1488;51.548;7.222;2023-07-29T05:14:18;24.40;98.90
2957;DHT22;1488;51.548;7.222;2023-07-29T05:16:45;24.30;98.80
2957;DHT22;1488;51.548;7.222;2023-07-29T05:19:11;24.30;98.80
2957;DHT22;1488;51.548;7.222;2023-07-29T05:21:38;24.40;99.30
2957;DHT22;1488;51.548;7.222;2023-07-29T05:24:07;24.30;99.20
2957;DHT22;1488;51.548;7.222;2023-07-29T05:26:34;24.40;99.90
2957;DHT22;1488;51.548;7.222;2023-07-29T05:29:00;24.30;99.90
2957;DHT22;1488;51.548;7.222;2023-07-29T05:31:27;24.30;99.90
2957;DHT22;1488;51.548;7.222;2023-07-29T05:33:54;24.30;99.90
2957;DHT22;1488;51.548;7.222;2023-07-29T05:36:21;24.30;99.90
2957;DHT22;1488;51.548;7.222;2023-07-29T05:38:48;24.30;99.90
2957;DHT22;1488;51.548;7.222;2023-07-29T05:41:16;24.30;99.90
2957;DHT22;1488;51.548;7.222;2023-07-29T05:43:42;24.30;99.90
2957;DHT22;1488;51.548;7.222;2023-07-29T05:46:10;24.30;99.80
2957;DHT22;1488;51.548;7.222;2023-07-29T05:48:37;24.30;99.70
2957;DHT22;1488;51.548;7.222;2023-07-29T05:51:04;24.30;99.60
2957;DHT22;1488;51.548;7.222;2023-07-29T05:53:31;24.30;99.50
2957;DHT22;1488;51.548;7.222;2023-07-29T05:55:58;24.30;99.60
2957;DHT22;1488;51.548;7.222;2023-07-29T05:58:26;24.30;99.70
2957;DHT22;1488;51.548;7.222;2023-07-29T06:00:53;24.30;99.70
2957;DHT22;1488;51.548;7.222;2023-07-29T06:03:20;24.30;99.90
2957;DHT22;1488;51.548;7.222;2023-07-29T06:05:46;24.50;99.90
2957;DHT22;1488;51.548;7.222;2023-07-29T06:08:16;24.30;99.90
2957;DHT22;1488;51.548;7.222;2023-07-29T06:10:43;24.30;99.90
2957;DHT22;1488;51.548;7.222;2023-07-29T06:13:10;24.30;99.90
2957;DHT22;1488;51.548;7.222;2023-07-29T06:15:38;24.30;99.90
2957;DHT22;1488;51.548;7.222;2023-07-29T06:18:05;24.30;99.90
2957;DHT22;1488;51.548;7.222;2023-07-29T06:20:32;24.30;99.90
2957;DHT22;1488;51.548;7.222;2023-07-29T06:22:59;24.30;99.90
2957;DHT22;1488;51.548;7.222;2023-07-29T06:25:25;24.20;99.90
2957;DHT22;1488;51.548;7.222;2023-07-29T06:27:52;24.30;99.90
2957;DHT22;1488;51.548;7.222;2023-07-29T06:30:19;24.20;99.90
2957;DHT22;1488;51.548;7.222;2023-07-29T06:32:47;24.20;99.90
2957;DHT22;1488;51.548;7.222;2023-07-29T06:35:14;24.20;99.90
2957;DHT22;1488;51.548;7.222;2023-07-29T06:37:41;24.20;99.90
2957;DHT22;1488;51.548;7.222;2023-07-29T06:40:08;24.20;99.80
2957;DHT22;1488;51.548;7.222;2023-07-29T06:42:35;24.20;99.80
2957;DHT22;1488;51.548;7.222;2023-07-29T06:45:04;24.20;99.70
2957;DHT22;1488;51.548;7.222;2023-07-29T06:47:31;24.20;99.80
